Terminal Aerodrome Forecast
Issued by NWS Cleveland, OH

Home | Current Version | Previous Version | Graphics & Text | Print | Product List | Glossary Off
Versions: 1 2 3 4 5 6 7 8 9 10 11 12 13 14 15 16 17 18 19 20 21

000
FTUS41 KCLE 191923 AAA
TAFCLE
TAF AMD
KCLE 191923Z 1919/2024 34010KT P6SM SCT035
     FM200200 35009KT P6SM FEW250
     FM202300 33005KT P6SM FEW250=

USA.gov is the U.S. government's official web portal to all federal, state and local government web resources and services.